DLL YMEN-YWSL
Flight info
| Callsign | DLL |
|---|---|
| Flight time | N/A |
| Altitude | 2500 |
| Route | DSN GMH NRW YNNG DRN YLTV FYN |
| Aircraft | SR20/L-S/N |
Departure
| Time | 2026-04-17 09:47 |
|---|---|
| Airport | Melbourne Essendon Airport (YMEN) |
Arrival
| Time | N/A |
|---|---|
| Airport | West Sale Airport (YWSL) |
| Time | Latitude | Longitude | Altitude | Speed | Heading |
|---|---|---|---|---|---|
| 2026-04-17 09:36 | -37.72251 | 144.89780 | 297 ft | 0 kts | 57° |
| 2026-04-17 09:44 | -37.72244 | 144.89792 | 297 ft | 3 kts | 60° |
| 2026-04-17 09:44 | -37.72211 | 144.89809 | 298 ft | 6 kts | 33° |
| 2026-04-17 09:44 | -37.72188 | 144.89871 | 298 ft | 9 kts | 67° |
| 2026-04-17 09:44 | -37.72142 | 144.89922 | 298 ft | 11 kts | 358° |
| 2026-04-17 09:45 | -37.72070 | 144.89916 | 299 ft | 9 kts | 14° |
| 2026-04-17 09:45 | -37.72054 | 144.89967 | 300 ft | 4 kts | 81° |
| 2026-04-17 09:45 | -37.72053 | 144.89982 | 300 ft | 0 kts | 77° |
| 2026-04-17 09:45 | -37.72052 | 144.89990 | 300 ft | 1 kts | 76° |
| 2026-04-17 09:46 | -37.72053 | 144.90035 | 299 ft | 9 kts | 96° |
| 2026-04-17 09:46 | -37.72084 | 144.90061 | 299 ft | 10 kts | 171° |
| 2026-04-17 09:46 | -37.72294 | 144.90084 | 296 ft | 58 kts | 179° |
| 2026-04-17 09:46 | -37.72824 | 144.90121 | 402 ft | 85 kts | 175° |
| 2026-04-17 09:47 | -37.73468 | 144.90155 | 535 ft | 95 kts | 181° |
| 2026-04-17 09:47 | -37.74092 | 144.90194 | 826 ft | 87 kts | 173° |
| 2026-04-17 09:47 | -37.74530 | 144.90724 | 981 ft | 108 kts | 107° |
| 2026-04-17 09:47 | -37.74579 | 144.91820 | 1065 ft | 122 kts | 98° |
| 2026-04-17 09:48 | -37.74716 | 144.92941 | 1214 ft | 128 kts | 104° |
| 2026-04-17 09:48 | -37.75056 | 144.94032 | 1380 ft | 127 kts | 121° |
| 2026-04-17 09:48 | -37.75438 | 144.95110 | 1539 ft | 130 kts | 118° |
| 2026-04-17 09:48 | -37.75815 | 144.96292 | 1498 ft | 140 kts | 116° |
| 2026-04-17 09:49 | -37.76239 | 144.97448 | 1502 ft | 139 kts | 122° |
| 2026-04-17 09:49 | -37.76654 | 144.98603 | 1552 ft | 138 kts | 113° |
| 2026-04-17 09:49 | -37.76844 | 144.99873 | 1508 ft | 146 kts | 100° |
| 2026-04-17 09:49 | -37.76941 | 145.01181 | 1523 ft | 146 kts | 97° |
| 2026-04-17 09:50 | -37.76956 | 145.02482 | 1528 ft | 147 kts | 95° |
| 2026-04-17 09:50 | -37.76970 | 145.03819 | 1430 ft | 153 kts | 96° |
| 2026-04-17 09:50 | -37.77007 | 145.05169 | 1400 ft | 154 kts | 96° |
| 2026-04-17 09:50 | -37.77088 | 145.06495 | 1433 ft | 149 kts | 99° |
| 2026-04-17 09:51 | -37.77247 | 145.07770 | 1494 ft | 142 kts | 109° |
| 2026-04-17 09:51 | -37.77543 | 145.08970 | 1521 ft | 141 kts | 112° |
| 2026-04-17 09:51 | -37.77871 | 145.10184 | 1473 ft | 146 kts | 116° |
| 2026-04-17 09:51 | -37.78305 | 145.11425 | 1352 ft | 151 kts | 120° |
| 2026-04-17 09:52 | -37.78824 | 145.12659 | 1293 ft | 149 kts | 123° |
| 2026-04-17 09:52 | -37.79554 | 145.13538 | 1318 ft | 140 kts | 152° |
| 2026-04-17 09:52 | -37.80361 | 145.14203 | 1363 ft | 136 kts | 147° |
| 2026-04-17 09:52 | -37.81112 | 145.14947 | 1388 ft | 136 kts | 144° |
| 2026-04-17 09:53 | -37.81806 | 145.15689 | 1552 ft | 126 kts | 146° |
| 2026-04-17 09:53 | -37.82153 | 145.16707 | 1467 ft | 153 kts | 81° |
| 2026-04-17 09:53 | -37.81517 | 145.17849 | 1409 ft | 159 kts | 43° |
| 2026-04-17 09:53 | -37.80647 | 145.18717 | 1402 ft | 159 kts | 36° |
| 2026-04-17 09:54 | -37.79821 | 145.19574 | 1543 ft | 150 kts | 42° |
| 2026-04-17 09:54 | -37.78977 | 145.20343 | 1602 ft | 150 kts | 30° |
| 2026-04-17 09:54 | -37.78094 | 145.21071 | 1564 ft | 154 kts | 49° |
| 2026-04-17 09:54 | -37.77731 | 145.22326 | 1491 ft | 153 kts | 90° |
| 2026-04-17 09:55 | -37.77866 | 145.23616 | 1593 ft | 141 kts | 109° |
| 2026-04-17 09:55 | -37.78136 | 145.24740 | 1778 ft | 129 kts | 115° |
| 2026-04-17 09:55 | -37.78493 | 145.25780 | 1883 ft | 127 kts | 122° |
| 2026-04-17 09:55 | -37.79018 | 145.26663 | 1921 ft | 126 kts | 142° |
| 2026-04-17 09:56 | -37.79749 | 145.27330 | 1888 ft | 129 kts | 160° |
| 2026-04-17 09:56 | -37.80579 | 145.27272 | 2049 ft | 115 kts | 199° |
| 2026-04-17 09:56 | -37.81346 | 145.27002 | 2151 ft | 114 kts | 195° |
| 2026-04-17 09:56 | -37.82132 | 145.26913 | 2266 ft | 114 kts | 177° |
| 2026-04-17 09:57 | -37.82936 | 145.27008 | 2339 ft | 116 kts | 178° |
| 2026-04-17 09:57 | -37.83785 | 145.27092 | 2323 ft | 124 kts | 178° |
| 2026-04-17 09:57 | -37.84658 | 145.27203 | 2365 ft | 125 kts | 172° |
| 2026-04-17 09:57 | -37.85520 | 145.27460 | 2377 ft | 127 kts | 170° |
| 2026-04-17 09:58 | -37.86395 | 145.27706 | 2390 ft | 129 kts | 171° |
| 2026-04-17 09:58 | -37.87284 | 145.27896 | 2477 ft | 125 kts | 175° |
| 2026-04-17 09:58 | -37.88149 | 145.27957 | 2523 ft | 123 kts | 185° |
| 2026-04-17 09:58 | -37.89009 | 145.27897 | 2620 ft | 120 kts | 184° |
| 2026-04-17 09:59 | -37.89832 | 145.27827 | 2709 ft | 118 kts | 184° |
| 2026-04-17 09:59 | -37.90662 | 145.27764 | 2732 ft | 121 kts | 188° |
| 2026-04-17 09:59 | -37.91489 | 145.27504 | 2757 ft | 122 kts | 198° |
| 2026-04-17 09:59 | -37.92285 | 145.27135 | 2831 ft | 119 kts | 201° |
| 2026-04-17 10:00 | -37.93049 | 145.26723 | 2873 ft | 119 kts | 202° |
| 2026-04-17 10:00 | -37.93820 | 145.26291 | 2868 ft | 122 kts | 204° |
| 2026-04-17 10:00 | -37.94629 | 145.25826 | 2785 ft | 130 kts | 202° |
| 2026-04-17 10:00 | -37.95516 | 145.25455 | 2734 ft | 133 kts | 195° |
| 2026-04-17 10:01 | -37.96412 | 145.25198 | 2806 ft | 127 kts | 193° |
| 2026-04-17 10:01 | -37.97290 | 145.24962 | 2774 ft | 130 kts | 192° |
| 2026-04-17 10:01 | -37.98205 | 145.24737 | 2717 ft | 134 kts | 192° |
| 2026-04-17 10:01 | -37.99135 | 145.24531 | 2648 ft | 137 kts | 188° |
| 2026-04-17 10:02 | -38.00114 | 145.24429 | 2535 ft | 141 kts | 187° |
| 2026-04-17 10:02 | -38.01059 | 145.24120 | 2497 ft | 138 kts | 199° |
| 2026-04-17 10:02 | -38.01963 | 145.23811 | 2554 ft | 132 kts | 194° |
| 2026-04-17 10:02 | -38.02880 | 145.23631 | 2571 ft | 131 kts | 188° |
| 2026-04-17 10:03 | -38.03764 | 145.23787 | 2586 ft | 136 kts | 157° |
| 2026-04-17 10:03 | -38.04569 | 145.24581 | 2389 ft | 149 kts | 143° |
| 2026-04-17 10:03 | -38.05413 | 145.25323 | 2345 ft | 144 kts | 155° |
| 2026-04-17 10:03 | -38.06302 | 145.25884 | 2395 ft | 135 kts | 160° |
| 2026-04-17 10:04 | -38.07177 | 145.26299 | 2364 ft | 136 kts | 163° |
| 2026-04-17 10:04 | -38.08015 | 145.26882 | 2414 ft | 136 kts | 147° |
| 2026-04-17 10:04 | -38.08774 | 145.27593 | 2393 ft | 137 kts | 150° |
| 2026-04-17 10:04 | -38.09637 | 145.28080 | 2349 ft | 136 kts | 167° |
| 2026-04-17 10:05 | -38.10572 | 145.28352 | 2299 ft | 137 kts | 172° |
| 2026-04-17 10:05 | -38.11471 | 145.28634 | 2502 ft | 122 kts | 170° |
| 2026-04-17 10:05 | -38.12287 | 145.28895 | 2600 ft | 122 kts | 167° |
| 2026-04-17 10:05 | -38.13152 | 145.29322 | 2679 ft | 125 kts | 149° |
| 2026-04-17 10:06 | -38.13616 | 145.30457 | 2614 ft | 148 kts | 104° |
| 2026-04-17 10:06 | -38.13741 | 145.31979 | 2491 ft | 156 kts | 102° |
| 2026-04-17 10:06 | -38.13998 | 145.33382 | 2650 ft | 142 kts | 110° |
| 2026-04-17 10:06 | -38.14255 | 145.34677 | 2540 ft | 151 kts | 109° |
| 2026-04-17 10:07 | -38.14580 | 145.36055 | 2625 ft | 144 kts | 113° |
| 2026-04-17 10:07 | -38.15003 | 145.37306 | 2691 ft | 139 kts | 123° |
| 2026-04-17 10:07 | -38.15458 | 145.38563 | 2687 ft | 144 kts | 118° |
| 2026-04-17 10:07 | -38.16002 | 145.39787 | 2612 ft | 146 kts | 132° |
| 2026-04-17 10:08 | -38.16657 | 145.40923 | 2565 ft | 148 kts | 128° |
| 2026-04-17 10:08 | -38.17215 | 145.42175 | 2521 ft | 152 kts | 118° |
| 2026-04-17 10:08 | -38.17667 | 145.43454 | 2579 ft | 145 kts | 124° |
| 2026-04-17 10:08 | -38.18314 | 145.44653 | 2363 ft | 156 kts | 131° |
| 2026-04-17 10:09 | -38.18917 | 145.45909 | 2358 ft | 153 kts | 120° |
| 2026-04-17 10:09 | -38.19322 | 145.47211 | 2549 ft | 142 kts | 108° |
| 2026-04-17 10:09 | -38.19517 | 145.48593 | 2556 ft | 147 kts | 102° |
| 2026-04-17 10:09 | -38.19592 | 145.50013 | 2607 ft | 148 kts | 95° |
| 2026-04-17 10:10 | -38.19584 | 145.51449 | 2574 ft | 152 kts | 96° |
| 2026-04-17 10:10 | -38.19650 | 145.52944 | 2500 ft | 156 kts | 95° |
| 2026-04-17 10:10 | -38.19633 | 145.54495 | 2457 ft | 156 kts | 90° |
| 2026-04-17 10:11 | -38.19459 | 145.57379 | 2625 ft | 143 kts | 106° |
| 2026-04-17 10:11 | -38.19876 | 145.58582 | 2738 ft | 134 kts | 133° |
| 2026-04-17 10:11 | -38.20596 | 145.59528 | 2707 ft | 139 kts | 137° |
| 2026-04-17 10:11 | -38.21008 | 145.60804 | 2635 ft | 153 kts | 106° |
| 2026-04-17 10:12 | -38.21211 | 145.62239 | 2675 ft | 150 kts | 102° |
| 2026-04-17 10:12 | -38.21216 | 145.63655 | 2783 ft | 148 kts | 90° |
| 2026-04-17 10:12 | -38.21101 | 145.65044 | 2955 ft | 141 kts | 82° |
| 2026-04-17 10:12 | -38.20854 | 145.66375 | 3099 ft | 137 kts | 83° |
| 2026-04-17 10:13 | -38.20740 | 145.67632 | 3308 ft | 129 kts | 86° |
| 2026-04-17 10:13 | -38.20504 | 145.68858 | 3444 ft | 132 kts | 76° |
| 2026-04-17 10:13 | -38.20167 | 145.70039 | 3619 ft | 129 kts | 76° |
| 2026-04-17 10:13 | -38.19905 | 145.71201 | 3788 ft | 127 kts | 80° |
| 2026-04-17 10:14 | -38.19611 | 145.72407 | 3914 ft | 131 kts | 71° |
| 2026-04-17 10:14 | -38.19320 | 145.73604 | 4078 ft | 127 kts | 85° |
| 2026-04-17 10:14 | -38.19294 | 145.74842 | 4186 ft | 126 kts | 100° |
| 2026-04-17 10:14 | -38.19433 | 145.75979 | 4382 ft | 125 kts | 108° |
| 2026-04-17 10:15 | -38.19660 | 145.77257 | 4395 ft | 141 kts | 107° |
| 2026-04-17 10:15 | -38.19917 | 145.78624 | 4416 ft | 149 kts | 110° |
| 2026-04-17 10:15 | -38.20240 | 145.80076 | 4327 ft | 161 kts | 110° |
| 2026-04-17 10:15 | -38.20569 | 145.81579 | 4459 ft | 152 kts | 115° |
| 2026-04-17 10:16 | -38.21157 | 145.82799 | 4494 ft | 152 kts | 130° |
| 2026-04-17 10:16 | -38.21778 | 145.84162 | 4323 ft | 167 kts | 120° |
| 2026-04-17 10:16 | -38.22250 | 145.85668 | 4344 ft | 165 kts | 114° |
| 2026-04-17 10:16 | -38.22640 | 145.87234 | 4324 ft | 166 kts | 110° |
| 2026-04-17 10:17 | -38.22973 | 145.88836 | 4235 ft | 170 kts | 108° |
| 2026-04-17 10:17 | -38.23293 | 145.90525 | 4019 ft | 181 kts | 105° |
| 2026-04-17 10:17 | -38.23549 | 145.92365 | 3760 ft | 186 kts | 99° |
| 2026-04-17 10:17 | -38.23214 | 145.94142 | 3686 ft | 187 kts | 68° |
| 2026-04-17 10:18 | -38.22561 | 145.95728 | 3705 ft | 178 kts | 59° |
| 2026-04-17 10:18 | -38.21765 | 145.97141 | 3637 ft | 176 kts | 56° |
| 2026-04-17 10:18 | -38.21023 | 145.98653 | 3422 ft | 179 kts | 57° |
| 2026-04-17 10:18 | -38.20297 | 146.00035 | 3474 ft | 169 kts | 56° |
| 2026-04-17 10:19 | -38.19694 | 146.01417 | 3603 ft | 154 kts | 83° |
| 2026-04-17 10:19 | -38.19696 | 146.02965 | 3288 ft | 172 kts | 99° |
| 2026-04-17 10:19 | -38.19805 | 146.04586 | 3102 ft | 174 kts | 98° |
| 2026-04-17 10:19 | -38.19877 | 146.06228 | 2971 ft | 175 kts | 94° |
| 2026-04-17 10:20 | -38.19922 | 146.07919 | 2933 ft | 169 kts | 96° |
| 2026-04-17 10:20 | -38.19983 | 146.09554 | 2866 ft | 168 kts | 95° |
| 2026-04-17 10:20 | -38.19970 | 146.11192 | 2822 ft | 166 kts | 91° |
| 2026-04-17 10:20 | -38.19932 | 146.12725 | 3002 ft | 153 kts | 90° |
| 2026-04-17 10:21 | -38.19846 | 146.14113 | 3166 ft | 146 kts | 87° |
| 2026-04-17 10:21 | -38.19668 | 146.15494 | 3292 ft | 143 kts | 82° |
| 2026-04-17 10:21 | -38.19431 | 146.16907 | 3302 ft | 149 kts | 80° |
| 2026-04-17 10:21 | -38.19222 | 146.18388 | 3208 ft | 159 kts | 85° |
| 2026-04-17 10:22 | -38.19076 | 146.19849 | 3198 ft | 160 kts | 86° |
| 2026-04-17 10:22 | -38.18914 | 146.21295 | 3163 ft | 163 kts | 85° |
| 2026-04-17 10:22 | -38.18935 | 146.22727 | 3225 ft | 154 kts | 102° |
| 2026-04-17 10:22 | -38.19042 | 146.24096 | 3330 ft | 151 kts | 98° |
| 2026-04-17 10:23 | -38.19191 | 146.25485 | 3156 ft | 163 kts | 104° |
| 2026-04-17 10:23 | -38.19366 | 146.26959 | 3006 ft | 169 kts | 105° |
| 2026-04-17 10:23 | -38.19673 | 146.28473 | 2813 ft | 173 kts | 110° |
| 2026-04-17 10:23 | -38.20126 | 146.30023 | 2481 ft | 180 kts | 121° |
| 2026-04-17 10:24 | -38.20775 | 146.31533 | 2257 ft | 178 kts | 125° |
| 2026-04-17 10:24 | -38.21398 | 146.32981 | 2177 ft | 171 kts | 118° |
| 2026-04-17 10:24 | -38.21705 | 146.34575 | 2023 ft | 175 kts | 102° |
| 2026-04-17 10:24 | -38.21877 | 146.36192 | 1940 ft | 172 kts | 101° |
| 2026-04-17 10:25 | -38.22030 | 146.37818 | 1822 ft | 172 kts | 102° |
| 2026-04-17 10:25 | -38.22205 | 146.39378 | 1783 ft | 168 kts | 102° |
| 2026-04-17 10:25 | -38.22381 | 146.40892 | 1756 ft | 165 kts | 103° |
| 2026-04-17 10:25 | -38.22585 | 146.42371 | 1804 ft | 161 kts | 104° |
| 2026-04-17 10:26 | -38.22693 | 146.43855 | 1791 ft | 162 kts | 95° |
| 2026-04-17 10:26 | -38.22613 | 146.45453 | 1805 ft | 163 kts | 80° |
| 2026-04-17 10:26 | -38.22074 | 146.46970 | 1634 ft | 175 kts | 61° |
| 2026-04-17 10:26 | -38.21495 | 146.48579 | 1533 ft | 174 kts | 64° |
| 2026-04-17 10:27 | -38.20819 | 146.50119 | 1374 ft | 163 kts | 56° |
| 2026-04-17 10:27 | -38.19997 | 146.50410 | 1314 ft | 101 kts | 313° |
| 2026-04-17 10:27 | -38.19746 | 146.49749 | 1191 ft | 69 kts | 257° |
| 2026-04-17 10:27 | -38.19847 | 146.49061 | 896 ft | 72 kts | 255° |
| 2026-04-17 10:28 | -38.20109 | 146.48430 | 611 ft | 77 kts | 240° |
| 2026-04-17 10:28 | -38.20487 | 146.47870 | 322 ft | 81 kts | 231° |
| 2026-04-17 10:28 | -38.20877 | 146.47372 | 197 ft | 67 kts | 230° |
| 2026-04-17 10:28 | -38.21187 | 146.46965 | 194 ft | 77 kts | 224° |
| 2026-04-17 10:29 | -38.21657 | 146.46435 | 445 ft | 85 kts | 222° |
| 2026-04-17 10:29 | -38.22207 | 146.46126 | 785 ft | 89 kts | 179° |
| 2026-04-17 10:29 | -38.22703 | 146.46714 | 1038 ft | 103 kts | 108° |
| 2026-04-17 10:29 | -38.22612 | 146.47745 | 1307 ft | 109 kts | 71° |
| 2026-04-17 10:30 | -38.22235 | 146.48722 | 1566 ft | 111 kts | 49° |
| 2026-04-17 10:30 | -38.21915 | 146.49703 | 1705 ft | 123 kts | 89° |
| 2026-04-17 10:30 | -38.21911 | 146.50988 | 1782 ft | 131 kts | 89° |
| 2026-04-17 10:30 | -38.21814 | 146.52289 | 1810 ft | 141 kts | 90° |
| 2026-04-17 10:31 | -38.21721 | 146.53700 | 1791 ft | 147 kts | 86° |
| 2026-04-17 10:31 | -38.21605 | 146.55148 | 1684 ft | 155 kts | 89° |
| 2026-04-17 10:31 | -38.21501 | 146.56635 | 1538 ft | 159 kts | 86° |
| 2026-04-17 10:31 | -38.21350 | 146.58114 | 1523 ft | 153 kts | 84° |
| 2026-04-17 10:32 | -38.21210 | 146.59528 | 1472 ft | 157 kts | 84° |
| 2026-04-17 10:32 | -38.21071 | 146.61028 | 1317 ft | 159 kts | 83° |
| 2026-04-17 10:32 | -38.20925 | 146.62482 | 1321 ft | 153 kts | 82° |
| 2026-04-17 10:32 | -38.20701 | 146.63846 | 1422 ft | 144 kts | 77° |
| 2026-04-17 10:33 | -38.20457 | 146.65142 | 1559 ft | 139 kts | 79° |
| 2026-04-17 10:33 | -38.20295 | 146.66411 | 1673 ft | 138 kts | 83° |